Time;durP1;ratioP1;P1;durP2;ratioP2;P2;SDS_P1;SDS_P2;PMS_P1;PMS_P2;Temp;Humidity;BMP_temperature;BMP_pressure;BME280_temperature;BME280_humidity;BME280_pressure;Samples;Min_cycle;Max_cycle;Signal;HPM_P1;HPM_P2
2023/12/01 05:02:32;;;;;;;;;;;-0.20;97.30;;;;;;5076407;23;19970;-86
2023/12/01 05:04:59;;;;;;;;;;;-0.20;97.30;;;;;;4914619;29;19911;-84
2023/12/01 05:07:24;;;;;;;;;;;-0.20;97.30;;;;;;4934400;29;19910;-86
2023/12/01 05:09:49;;;;;;;;;;;-0.30;97.30;;;;;;4942014;29;20270;-85
2023/12/01 05:12:15;;;;;;;;;;;-0.30;97.30;;;;;;4943179;28;20401;-86
2023/12/01 05:14:40;;;;;;;;;;;-0.30;97.30;;;;;;4943273;29;19981;-87
2023/12/01 05:17:07;;;;;;;;;;;-0.30;97.30;;;;;;4944774;29;19977;-87
2023/12/01 05:19:33;;;;;;;;;;;-0.30;97.30;;;;;;4930587;29;19906;-87
2023/12/01 05:21:58;;;;;;;;;;;-0.30;97.30;;;;;;4933422;29;19907;-86
2023/12/01 05:24:23;;;;;;;;;;;-0.30;97.30;;;;;;4933081;29;19911;-86
2023/12/01 05:26:49;;;;;;;;;;;-0.30;97.30;;;;;;4934452;29;19910;-86
2023/12/01 05:29:14;;;;;;;;;;;-0.30;97.30;;;;;;4935335;29;20453;-86
2023/12/01 05:31:40;;;;;;;;;;;-0.30;97.30;;;;;;4922891;29;20202;-86
2023/12/01 05:34:05;;;;;;;;;;;-0.40;97.30;;;;;;4934055;29;19962;-87
2023/12/01 05:36:31;;;;;;;;;;;-0.40;97.30;;;;;;4935912;29;19906;-85
2023/12/01 05:38:57;;;;;;;;;;;-0.40;97.30;;;;;;4925547;29;19906;-85
2023/12/01 05:41:23;;;;;;;;;;;-0.30;97.30;;;;;;4933505;29;19910;-86
2023/12/01 05:43:48;;;;;;;;;;;-0.30;97.30;;;;;;4934457;29;20498;-87
2023/12/01 05:46:14;;;;;;;;;;;-0.30;97.30;;;;;;4918712;29;20002;-86
2023/12/01 05:48:39;;;;;;;;;;;-0.30;97.30;;;;;;4919521;29;19907;-86
2023/12/01 05:51:05;;;;;;;;;;;-0.30;97.30;;;;;;4916972;29;20442;-85
2023/12/01 05:53:34;;;;;;;;;;;-0.30;97.30;;;;;;4935942;29;20295;-86
2023/12/01 05:56:02;;;;;;;;;;;-0.30;97.30;;;;;;4940703;29;19910;-85
2023/12/01 05:58:28;;;;;;;;;;;-0.40;97.30;;;;;;4939864;29;19918;-85
2023/12/01 06:00:53;;;;;;;;;;;-0.40;97.30;;;;;;4915633;29;19915;-86
2023/12/01 06:03:19;;;;;;;;;;;-0.40;97.30;;;;;;4938633;29;19950;-85
2023/12/01 06:05:46;;;;;;;;;;;-0.40;97.30;;;;;;4921782;29;19958;-85
2023/12/01 06:08:12;;;;;;;;;;;-0.40;97.30;;;;;;4922916;29;19938;-85
2023/12/01 06:10:37;;;;;;;;;;;-0.40;97.30;;;;;;4921880;29;19914;-86
2023/12/01 06:13:04;;;;;;;;;;;-0.40;97.30;;;;;;4921639;29;19906;-86
2023/12/01 06:15:29;;;;;;;;;;;-0.40;97.30;;;;;;4921956;29;20327;-86
2023/12/01 06:17:57;;;;;;;;;;;-0.40;97.30;;;;;;4935183;29;19913;-86
2023/12/01 06:20:23;;;;;;;;;;;-0.40;97.30;;;;;;4938246;29;19946;-84
2023/12/01 06:22:48;;;;;;;;;;;-0.40;97.30;;;;;;4937733;29;19957;-85
2023/12/01 06:25:14;;;;;;;;;;;-0.40;97.30;;;;;;4937145;29;20323;-86
2023/12/01 06:27:41;;;;;;;;;;;-0.40;97.30;;;;;;4921942;29;19907;-85
2023/12/01 06:30:13;;;;;;;;;;;-0.40;97.30;;;;;;4938159;29;20334;-86
2023/12/01 06:32:39;;;;;;;;;;;-0.30;97.30;;;;;;4920919;29;19949;-87
2023/12/01 06:35:07;;;;;;;;;;;-0.30;97.30;;;;;;4935379;29;19953;-87
2023/12/01 06:37:32;;;;;;;;;;;-0.30;97.30;;;;;;4930529;29;20403;-87
2023/12/01 06:39:57;;;;;;;;;;;-0.30;97.30;;;;;;4934315;29;20009;-86
2023/12/01 06:42:23;;;;;;;;;;;-0.30;97.30;;;;;;4934942;29;19950;-86
2023/12/01 06:44:48;;;;;;;;;;;-0.30;97.30;;;;;;4937080;29;20050;-87
2023/12/01 06:47:14;;;;;;;;;;;-0.30;97.30;;;;;;4934863;29;20009;-86
2023/12/01 06:49:39;;;;;;;;;;;-0.30;97.30;;;;;;4933669;29;19915;-86
2023/12/01 06:52:08;;;;;;;;;;;-0.30;97.30;;;;;;4918145;29;19918;-86
2023/12/01 06:54:33;;;;;;;;;;;-0.40;97.30;;;;;;4934256;29;19969;-85
2023/12/01 06:56:59;;;;;;;;;;;-0.40;97.30;;;;;;4922863;29;19906;-86
2023/12/01 06:59:24;;;;;;;;;;;-0.30;97.30;;;;;;4918474;29;20462;-86
2023/12/01 07:01:50;;;;;;;;;;;-0.30;97.30;;;;;;4932485;29;20013;-87
2023/12/01 07:04:15;;;;;;;;;;;-0.30;97.30;;;;;;4932281;29;20002;-86
2023/12/01 07:06:46;;;;;;;;;;;-0.30;97.30;;;;;;4933024;29;19953;-87
2023/12/01 07:09:17;;;;;;;;;;;-0.30;97.30;;;;;;4933307;29;19918;-87
2023/12/01 07:11:48;;;;;;;;;;;-0.30;97.30;;;;;;4917215;29;19978;-84
2023/12/01 07:14:14;;;;;;;;;;;-0.30;97.30;;;;;;4918847;29;19918;-86
2023/12/01 07:16:40;;;;;;;;;;;-0.30;97.30;;;;;;4930095;29;19906;-86
2023/12/01 07:19:05;;;;;;;;;;;-0.30;97.30;;;;;;4945537;29;19907;-87
2023/12/01 07:21:31;;;;;;;;;;;-0.30;97.30;;;;;;4935345;29;19906;-86
2023/12/01 07:23:58;;;;;;;;;;;-0.30;97.30;;;;;;4935725;29;20013;-86
2023/12/01 07:26:27;;;;;;;;;;;-0.30;97.30;;;;;;4947413;29;19935;-86
2023/12/01 07:28:52;;;;;;;;;;;-0.30;97.30;;;;;;4947077;29;19914;-86
2023/12/01 07:31:18;;;;;;;;;;;-0.30;97.30;;;;;;4927044;29;20060;-86
2023/12/01 07:33:43;;;;;;;;;;;-0.30;97.30;;;;;;4935555;29;19910;-86
2023/12/01 07:36:09;;;;;;;;;;;-0.30;97.30;;;;;;4924729;29;19914;-86
2023/12/01 07:38:35;;;;;;;;;;;-0.30;97.30;;;;;;4928514;29;19906;-86
2023/12/01 07:41:00;;;;;;;;;;;-0.30;97.30;;;;;;4943741;29;19906;-84
2023/12/01 07:43:26;;;;;;;;;;;-0.30;97.30;;;;;;4951663;29;20363;-86
2023/12/01 07:45:51;;;;;;;;;;;-0.20;97.30;;;;;;4931728;29;20423;-86
2023/12/01 07:48:17;;;;;;;;;;;-0.20;97.30;;;;;;4921271;29;19911;-86
2023/12/01 07:50:44;;;;;;;;;;;-0.20;97.30;;;;;;4930471;29;19921;-86
2023/12/01 07:53:10;;;;;;;;;;;-0.20;97.30;;;;;;4934003;29;19914;-86
2023/12/01 07:55:36;;;;;;;;;;;-0.20;97.30;;;;;;4935525;29;20157;-86
2023/12/01 07:58:01;;;;;;;;;;;-0.20;97.30;;;;;;4915471;29;19907;-84
2023/12/01 08:00:27;;;;;;;;;;;-0.20;97.30;;;;;;4917783;29;20410;-86
2023/12/01 08:02:52;;;;;;;;;;;-0.20;97.30;;;;;;4919477;29;20704;-86
2023/12/01 08:05:18;;;;;;;;;;;-0.20;97.30;;;;;;4932273;29;19929;-85
2023/12/01 08:07:44;;;;;;;;;;;-0.20;97.30;;;;;;4919437;29;19918;-84
2023/12/01 08:10:09;;;;;;;;;;;-0.20;97.30;;;;;;4917301;29;19922;-86
2023/12/01 08:12:35;;;;;;;;;;;-0.20;97.30;;;;;;4926612;29;19962;-84
2023/12/01 08:15:00;;;;;;;;;;;-0.20;97.30;;;;;;4907870;29;19970;-85
2023/12/01 08:17:26;;;;;;;;;;;-0.30;97.30;;;;;;4913720;29;19957;-82
2023/12/01 08:19:51;;;;;;;;;;;-0.30;97.30;;;;;;4932243;29;19918;-84
2023/12/01 08:22:17;;;;;;;;;;;-0.30;97.30;;;;;;4931384;29;19918;-84
2023/12/01 08:24:42;;;;;;;;;;;-0.20;97.30;;;;;;4932663;29;19969;-85
2023/12/01 08:27:08;;;;;;;;;;;-0.20;97.30;;;;;;4930617;29;19925;-86
2023/12/01 08:29:33;;;;;;;;;;;-0.20;97.30;;;;;;4916602;29;19964;-84
2023/12/01 08:32:00;;;;;;;;;;;-0.20;97.30;;;;;;4919493;29;20275;-84
2023/12/01 08:34:25;;;;;;;;;;;-0.20;97.30;;;;;;4919069;29;20391;-84
2023/12/01 08:36:50;;;;;;;;;;;-0.20;97.30;;;;;;4931238;29;19921;-85
2023/12/01 08:39:16;;;;;;;;;;;-0.20;97.30;;;;;;4920363;29;19946;-85
2023/12/01 08:41:42;;;;;;;;;;;-0.10;97.30;;;;;;4921702;29;19931;-85
2023/12/01 08:44:08;;;;;;;;;;;0.00;97.30;;;;;;4920090;29;19922;-84
2023/12/01 08:46:33;;;;;;;;;;;0.00;97.30;;;;;;4917105;29;20003;-85
2023/12/01 08:48:59;;;;;;;;;;;0.00;97.30;;;;;;4922877;29;20401;-83
2023/12/01 08:51:24;;;;;;;;;;;0.00;97.30;;;;;;4919452;29;20294;-84
2023/12/01 08:53:49;;;;;;;;;;;0.00;97.30;;;;;;4920094;29;19918;-84
2023/12/01 08:56:15;;;;;;;;;;;0.00;97.30;;;;;;4918525;29;19906;-83
2023/12/01 08:58:40;;;;;;;;;;;0.10;97.30;;;;;;4911320;29;20363;-84
2023/12/01 09:01:06;;;;;;;;;;;0.10;97.30;;;;;;4917302;29;20507;-84
2023/12/01 09:03:31;;;;;;;;;;;0.20;97.30;;;;;;4928465;29;19953;-84
2023/12/01 09:05:57;;;;;;;;;;;0.20;97.30;;;;;;4919012;29;19993;-86
2023/12/01 09:08:22;;;;;;;;;;;0.20;97.30;;;;;;4928131;29;19919;-84
2023/12/01 09:10:47;;;;;;;;;;;0.20;97.30;;;;;;4930941;29;20438;-84
2023/12/01 09:13:13;;;;;;;;;;;0.20;97.30;;;;;;4917287;29;20427;-84
2023/12/01 09:15:38;;;;;;;;;;;0.20;97.30;;;;;;4932794;29;20476;-85
2023/12/01 09:18:04;;;;;;;;;;;0.20;97.30;;;;;;4918703;29;20389;-84
2023/12/01 09:20:29;;;;;;;;;;;0.20;97.30;;;;;;4921141;29;19921;-84
2023/12/01 09:22:55;;;;;;;;;;;0.20;97.30;;;;;;4920858;29;19906;-85
2023/12/01 09:25:20;;;;;;;;;;;0.20;97.30;;;;;;4931395;29;19914;-84
2023/12/01 09:27:47;;;;;;;;;;;0.20;97.30;;;;;;4936842;29;20009;-83
2023/12/01 09:30:16;;;;;;;;;;;0.20;97.30;;;;;;4916945;29;20386;-85
2023/12/01 09:32:42;;;;;;;;;;;0.30;97.30;;;;;;4936617;29;20612;-84
2023/12/01 09:35:07;;;;;;;;;;;0.40;97.30;;;;;;4922261;29;19922;-86
2023/12/01 09:37:33;;;;;;;;;;;0.50;97.30;;;;;;4919339;29;19911;-85
2023/12/01 09:39:58;;;;;;;;;;;0.50;97.30;;;;;;4923689;29;19922;-84
2023/12/01 09:42:24;;;;;;;;;;;0.60;97.30;;;;;;4929590;29;19910;-84
2023/12/01 09:44:50;;;;;;;;;;;0.60;97.30;;;;;;4942614;29;19914;-84
2023/12/01 09:47:17;;;;;;;;;;;0.60;97.30;;;;;;4940083;29;19966;-84
2023/12/01 09:49:45;;;;;;;;;;;0.50;97.30;;;;;;4947544;29;19954;-83
2023/12/01 09:52:10;;;;;;;;;;;0.40;97.30;;;;;;4935977;29;19906;-85
2023/12/01 09:54:36;;;;;;;;;;;0.40;97.30;;;;;;4923973;29;20756;-85
2023/12/01 09:57:06;;;;;;;;;;;0.40;97.30;;;;;;4923034;29;20367;-84
2023/12/01 09:59:35;;;;;;;;;;;0.40;97.30;;;;;;4933896;29;19949;-84
2023/12/01 10:02:02;;;;;;;;;;;0.40;97.30;;;;;;4922685;29;19918;-84
2023/12/01 10:04:28;;;;;;;;;;;0.40;97.30;;;;;;4935692;28;20222;-84
2023/12/01 10:06:54;;;;;;;;;;;0.40;97.30;;;;;;4922224;29;19914;-83
2023/12/01 10:09:26;;;;;;;;;;;0.50;97.30;;;;;;4922453;29;19915;-84
2023/12/01 10:12:07;;;;;;;;;;;0.50;97.30;;;;;;4933793;29;20371;-84
2023/12/01 10:14:33;;;;;;;;;;;0.40;97.30;;;;;;4930401;29;19973;-85
2023/12/01 10:17:07;;;;;;;;;;;0.40;97.30;;;;;;4918156;29;19910;-84
2023/12/01 10:19:33;;;;;;;;;;;0.40;97.30;;;;;;4938200;28;20010;-83
2023/12/01 10:21:58;;;;;;;;;;;0.30;97.30;;;;;;4917748;29;19919;-83
2023/12/01 10:24:24;;;;;;;;;;;0.20;97.30;;;;;;4920376;29;19915;-84
2023/12/01 10:26:53;;;;;;;;;;;0.10;97.30;;;;;;4936254;29;19915;-84
2023/12/01 10:29:22;;;;;;;;;;;0.10;97.30;;;;;;4922892;29;19957;-86
2023/12/01 10:31:47;;;;;;;;;;;0.10;97.30;;;;;;4932808;29;19969;-84
2023/12/01 10:34:13;;;;;;;;;;;0.30;97.30;;;;;;4917212;28;20305;-84
2023/12/01 10:36:38;;;;;;;;;;;0.30;97.30;;;;;;4920485;29;19914;-84
2023/12/01 10:39:04;;;;;;;;;;;0.30;97.30;;;;;;4919535;29;19954;-84
2023/12/01 10:41:29;;;;;;;;;;;0.30;97.30;;;;;;4934127;29;19994;-85
2023/12/01 10:43:55;;;;;;;;;;;0.30;97.30;;;;;;4928554;29;20057;-84
2023/12/01 10:46:21;;;;;;;;;;;0.30;97.30;;;;;;4922855;29;19915;-84
2023/12/01 10:48:47;;;;;;;;;;;0.30;97.30;;;;;;4920975;29;19942;-85
2023/12/01 10:51:13;;;;;;;;;;;0.20;97.30;;;;;;4932294;29;20510;-84
2023/12/01 10:53:40;;;;;;;;;;;0.10;97.30;;;;;;4932435;29;19914;-84
2023/12/01 10:56:11;;;;;;;;;;;0.10;97.30;;;;;;4933855;29;19939;-83
2023/12/01 10:58:38;;;;;;;;;;;0.10;97.30;;;;;;4931673;29;19919;-83
2023/12/01 11:01:04;;;;;;;;;;;0.10;97.30;;;;;;4920716;29;20585;-82
2023/12/01 11:03:30;;;;;;;;;;;0.10;97.30;;;;;;4915639;29;19925;-83
2023/12/01 11:05:59;;;;;;;;;;;0.10;97.30;;;;;;4929933;29;19915;-84
2023/12/01 11:08:30;;;;;;;;;;;0.20;97.30;;;;;;4920689;29;20264;-83
2023/12/01 11:11:25;;;;;;;;;;;0.20;97.30;;;;;;4933570;29;19911;-83
2023/12/01 11:14:10;;;;;;;;;;;0.20;97.30;;;;;;4920535;29;20434;-82
2023/12/01 11:16:35;;;;;;;;;;;0.10;97.30;;;;;;4919963;29;20387;-82
2023/12/01 11:19:01;;;;;;;;;;;0.00;97.30;;;;;;4919872;29;19918;-83
2023/12/01 11:21:26;;;;;;;;;;;0.00;97.30;;;;;;4919007;29;19914;-83
2023/12/01 11:23:52;;;;;;;;;;;-0.10;97.30;;;;;;4934995;29;20287;-83
2023/12/01 11:26:17;;;;;;;;;;;0.00;97.30;;;;;;4927658;29;19914;-84
2023/12/01 11:28:44;;;;;;;;;;;-0.10;97.30;;;;;;4933103;29;19918;-84
2023/12/01 11:31:27;;;;;;;;;;;-0.10;97.30;;;;;;4922889;29;20036;-82
2023/12/01 11:33:53;;;;;;;;;;;-0.10;97.30;;;;;;4933629;29;19938;-82
2023/12/01 11:36:37;;;;;;;;;;;0.40;97.30;;;;;;4920786;29;19998;-82
2023/12/01 11:39:20;;;;;;;;;;;0.30;97.30;;;;;;4935278;29;19911;-83
2023/12/01 11:41:58;;;;;;;;;;;0.20;97.30;;;;;;4928363;29;19925;-85
2023/12/01 11:44:30;;;;;;;;;;;0.10;97.30;;;;;;4927599;29;19925;-84
2023/12/01 11:46:57;;;;;;;;;;;0.10;97.30;;;;;;4933084;29;19923;-83
2023/12/01 11:49:26;;;;;;;;;;;0.10;97.30;;;;;;4933257;29;20302;-84
2023/12/01 11:51:52;;;;;;;;;;;0.10;97.30;;;;;;4931262;29;20012;-81
2023/12/01 11:54:17;;;;;;;;;;;0.10;97.30;;;;;;4920894;29;20351;-83
2023/12/01 11:56:48;;;;;;;;;;;0.10;97.30;;;;;;4934203;29;20151;-83
2023/12/01 11:59:13;;;;;;;;;;;0.10;97.30;;;;;;4914127;29;19930;-83
2023/12/01 12:01:39;;;;;;;;;;;0.10;97.30;;;;;;4929014;29;20021;-84
2023/12/01 12:04:07;;;;;;;;;;;0.00;97.30;;;;;;4920565;29;20667;-82
2023/12/01 12:06:32;;;;;;;;;;;0.00;97.30;;;;;;4932383;29;20298;-84
2023/12/01 12:08:59;;;;;;;;;;;0.10;97.30;;;;;;4915281;29;19915;-84
2023/12/01 12:11:24;;;;;;;;;;;0.00;97.30;;;;;;4932894;29;19919;-82
2023/12/01 12:13:53;;;;;;;;;;;0.00;97.30;;;;;;4917599;29;19962;-83
2023/12/01 12:16:20;;;;;;;;;;;0.00;97.30;;;;;;4921392;29;20602;-84
2023/12/01 12:18:48;;;;;;;;;;;0.00;97.30;;;;;;4920921;29;19962;-82
2023/12/01 12:21:13;;;;;;;;;;;0.00;97.30;;;;;;4934446;29;19918;-83
2023/12/01 12:23:39;;;;;;;;;;;-0.10;97.30;;;;;;4920818;29;19922;-82
2023/12/01 12:26:14;;;;;;;;;;;0.00;97.30;;;;;;4935956;29;19911;-81
2023/12/01 12:28:41;;;;;;;;;;;-0.10;97.30;;;;;;4928356;29;19922;-82
2023/12/01 12:31:06;;;;;;;;;;;-0.10;97.30;;;;;;4934507;29;19922;-83
2023/12/01 12:33:32;;;;;;;;;;;-0.10;97.30;;;;;;4921626;29;19958;-82
2023/12/01 12:35:57;;;;;;;;;;;-0.10;97.30;;;;;;4936431;29;19914;-83
2023/12/01 12:38:23;;;;;;;;;;;0.00;97.30;;;;;;4919262;29;19956;-82
2023/12/01 12:40:48;;;;;;;;;;;0.00;97.30;;;;;;4929372;29;19961;-81
2023/12/01 12:43:14;;;;;;;;;;;0.00;97.30;;;;;;4921673;29;19957;-83
2023/12/01 12:45:39;;;;;;;;;;;-0.10;97.30;;;;;;4934095;29;19922;-82
2023/12/01 12:48:09;;;;;;;;;;;-0.10;97.30;;;;;;4918060;29;20001;-84
2023/12/01 12:50:38;;;;;;;;;;;-0.10;97.30;;;;;;4930332;29;20379;-84
2023/12/01 12:53:04;;;;;;;;;;;-0.10;97.30;;;;;;4918594;29;20370;-83
2023/12/01 12:55:30;;;;;;;;;;;-0.10;97.30;;;;;;4920120;29;19918;-83
2023/12/01 12:57:56;;;;;;;;;;;-0.20;97.30;;;;;;4928972;29;19914;-83
2023/12/01 13:00:21;;;;;;;;;;;-0.20;97.30;;;;;;4923083;29;19914;-82
2023/12/01 13:02:47;;;;;;;;;;;-0.20;97.30;;;;;;4922610;29;20482;-83
2023/12/01 13:05:12;;;;;;;;;;;-0.20;97.30;;;;;;4936737;29;19957;-84
2023/12/01 13:07:37;;;;;;;;;;;-0.20;97.30;;;;;;4931269;29;20521;-84
2023/12/01 13:10:03;;;;;;;;;;;-0.30;97.30;;;;;;4922789;29;19918;-83
2023/12/01 13:12:28;;;;;;;;;;;-0.30;97.30;;;;;;4936355;29;19926;-82
2023/12/01 13:14:54;;;;;;;;;;;-0.30;97.30;;;;;;4923975;29;19915;-84
2023/12/01 13:17:22;;;;;;;;;;;-0.30;97.30;;;;;;4922849;29;19982;-85
2023/12/01 13:19:48;;;;;;;;;;;-0.30;97.30;;;;;;4913475;29;19907;-83
2023/12/01 13:22:14;;;;;;;;;;;-0.40;97.30;;;;;;4934670;28;19919;-83
2023/12/01 13:24:39;;;;;;;;;;;-0.40;97.30;;;;;;4933129;29;20364;-83
2023/12/01 13:27:05;;;;;;;;;;;-0.40;97.30;;;;;;4933725;29;19910;-83
2023/12/01 13:29:30;;;;;;;;;;;-0.40;97.30;;;;;;4918758;29;20036;-83
2023/12/01 13:31:56;;;;;;;;;;;-0.40;97.30;;;;;;4919295;29;20394;-85
2023/12/01 13:34:21;;;;;;;;;;;-0.40;97.30;;;;;;4921899;29;19914;-83
2023/12/01 13:36:48;;;;;;;;;;;-0.40;97.30;;;;;;4922453;29;19919;-83
2023/12/01 13:39:16;;;;;;;;;;;-0.40;97.30;;;;;;4929468;29;19915;-83
2023/12/01 13:41:42;;;;;;;;;;;-0.40;97.30;;;;;;4923052;29;19910;-83
2023/12/01 13:44:07;;;;;;;;;;;-0.40;97.30;;;;;;4933808;29;20342;-87
2023/12/01 13:46:33;;;;;;;;;;;-0.40;97.30;;;;;;4922218;29;20358;-88
2023/12/01 13:48:58;;;;;;;;;;;-0.40;97.30;;;;;;4922372;29;20381;-86
2023/12/01 13:51:24;;;;;;;;;;;-0.40;97.30;;;;;;4935191;29;20052;-87
2023/12/01 13:53:50;;;;;;;;;;;-0.40;97.30;;;;;;4934469;29;19919;-88
2023/12/01 13:56:15;;;;;;;;;;;-0.50;97.30;;;;;;4935964;29;19907;-86
2023/12/01 13:58:41;;;;;;;;;;;-0.50;97.30;;;;;;4922620;29;19975;-86
2023/12/01 14:01:07;;;;;;;;;;;-0.50;97.30;;;;;;4928522;28;19927;-85
2023/12/01 14:03:32;;;;;;;;;;;-0.50;97.30;;;;;;4924532;29;20273;-86
2023/12/01 14:05:58;;;;;;;;;;;-0.50;97.30;;;;;;4918923;29;19961;-86
2023/12/01 14:08:24;;;;;;;;;;;0.00;97.30;;;;;;4934378;29;19926;-86
2023/12/01 14:10:50;;;;;;;;;;;-0.10;97.30;;;;;;4933719;29;20013;-86
2023/12/01 14:13:15;;;;;;;;;;;-0.30;97.30;;;;;;4920650;29;19946;-87
2023/12/01 14:15:41;;;;;;;;;;;-0.40;97.30;;;;;;4923578;29;20471;-86
2023/12/01 14:18:06;;;;;;;;;;;-0.40;97.30;;;;;;4936947;29;19978;-86
2023/12/01 14:20:32;;;;;;;;;;;-0.50;97.30;;;;;;4931659;29;19958;-89
2023/12/01 14:22:58;;;;;;;;;;;-0.50;97.30;;;;;;4932525;29;19918;-86
2023/12/01 14:25:23;;;;;;;;;;;-0.50;97.30;;;;;;4944649;29;19979;-86
2023/12/01 14:27:49;;;;;;;;;;;-0.50;97.30;;;;;;4918743;29;19911;-86
2023/12/01 14:30:14;;;;;;;;;;;-0.60;97.30;;;;;;4917827;29;19915;-86
2023/12/01 14:32:41;;;;;;;;;;;-0.60;97.30;;;;;;4921708;29;20508;-87
2023/12/01 14:35:06;;;;;;;;;;;-0.60;97.30;;;;;;4918386;29;20329;-86
2023/12/01 14:37:32;;;;;;;;;;;-0.60;97.30;;;;;;4920870;29;19930;-87
2023/12/01 14:39:58;;;;;;;;;;;-0.60;97.30;;;;;;4932872;29;19922;-86
2023/12/01 14:42:23;;;;;;;;;;;-0.60;97.30;;;;;;4916904;29;19926;-87
2023/12/01 14:44:49;;;;;;;;;;;-0.60;97.30;;;;;;4917997;29;19919;-86
2023/12/01 14:47:14;;;;;;;;;;;-0.60;97.30;;;;;;4919361;29;20461;-87
2023/12/01 14:49:39;;;;;;;;;;;-0.60;97.30;;;;;;4916241;29;19938;-86
2023/12/01 14:52:05;;;;;;;;;;;-0.50;97.30;;;;;;4916679;29;19915;-89
2023/12/01 14:54:30;;;;;;;;;;;-0.50;97.30;;;;;;4917820;29;20375;-87
2023/12/01 14:56:56;;;;;;;;;;;-0.50;97.30;;;;;;4919737;29;19967;-85
2023/12/01 14:59:23;;;;;;;;;;;-0.40;97.30;;;;;;4921387;29;19919;-86
2023/12/01 15:01:50;;;;;;;;;;;-0.50;97.30;;;;;;4926974;29;20430;-86
2023/12/01 15:04:16;;;;;;;;;;;-0.50;97.30;;;;;;4928521;29;20371;-86
2023/12/01 15:06:42;;;;;;;;;;;-0.50;97.30;;;;;;4920518;29;19924;-88
2023/12/01 15:09:10;;;;;;;;;;;-0.60;97.30;;;;;;4922396;29;19914;-83
2023/12/01 15:11:36;;;;;;;;;;;-0.60;97.30;;;;;;4920714;29;19925;-86
2023/12/01 15:14:01;;;;;;;;;;;-0.60;97.30;;;;;;4920176;29;19907;-87
2023/12/01 15:16:27;;;;;;;;;;;-0.60;97.30;;;;;;4919498;29;19918;-85
2023/12/01 15:18:52;;;;;;;;;;;-0.60;97.30;;;;;;4919142;29;19950;-87
2023/12/01 15:21:18;;;;;;;;;;;-0.60;97.30;;;;;;4918609;29;19914;-88
2023/12/01 15:23:44;;;;;;;;;;;-0.60;97.30;;;;;;4928575;29;19919;-85
2023/12/01 15:26:13;;;;;;;;;;;-0.60;97.30;;;;;;4921071;29;19907;-86
2023/12/01 15:28:39;;;;;;;;;;;-0.60;97.30;;;;;;4931792;29;20005;-87
2023/12/01 15:31:05;;;;;;;;;;;-0.60;97.30;;;;;;4916080;29;20041;-84
2023/12/01 15:33:30;;;;;;;;;;;-0.60;97.30;;;;;;4918491;29;19913;-83
2023/12/01 15:35:55;;;;;;;;;;;-0.60;97.30;;;;;;4919857;29;19918;-84
2023/12/01 15:38:21;;;;;;;;;;;-0.60;97.30;;;;;;4932025;29;19985;-83
2023/12/01 15:40:46;;;;;;;;;;;-0.60;97.30;;;;;;4918226;29;20295;-84
2023/12/01 15:43:12;;;;;;;;;;;-0.70;97.30;;;;;;4917637;29;19922;-85
2023/12/01 15:45:37;;;;;;;;;;;-0.70;97.30;;;;;;4917879;29;20379;-83
2023/12/01 15:48:03;;;;;;;;;;;-0.70;97.30;;;;;;4911339;29;20383;-83
2023/12/01 15:50:29;;;;;;;;;;;-0.70;97.30;;;;;;4927198;29;20005;-84
2023/12/01 15:52:56;;;;;;;;;;;-0.80;97.30;;;;;;4928092;29;20006;-84
2023/12/01 15:55:21;;;;;;;;;;;-0.80;97.30;;;;;;4917026;29;20368;-84
2023/12/01 15:57:47;;;;;;;;;;;-0.80;97.30;;;;;;4915959;29;19914;-83
2023/12/01 16:00:12;;;;;;;;;;;-0.80;97.30;;;;;;4929475;29;20243;-82
2023/12/01 16:02:38;;;;;;;;;;;-0.80;97.30;;;;;;4916961;29;19935;-83
2023/12/01 16:05:03;;;;;;;;;;;-0.70;97.30;;;;;;4918038;29;20462;-84
2023/12/01 16:07:29;;;;;;;;;;;-0.80;97.30;;;;;;4928914;29;19914;-82
2023/12/01 16:09:54;;;;;;;;;;;-0.80;97.30;;;;;;4932234;29;19907;-83
2023/12/01 16:12:20;;;;;;;;;;;-0.80;97.30;;;;;;4918417;29;20371;-83
2023/12/01 16:14:47;;;;;;;;;;;-0.80;97.30;;;;;;4932909;29;20514;-84
2023/12/01 16:17:13;;;;;;;;;;;-0.80;97.30;;;;;;4916971;29;20241;-84
2023/12/01 16:19:38;;;;;;;;;;;-0.80;97.30;;;;;;4927076;29;19914;-83
2023/12/01 16:22:04;;;;;;;;;;;-0.80;97.30;;;;;;4917759;29;20386;-84
2023/12/01 16:24:30;;;;;;;;;;;-0.80;97.30;;;;;;4910972;29;19958;-84
2023/12/01 16:26:55;;;;;;;;;;;-0.80;97.30;;;;;;4930738;29;20129;-84
2023/12/01 16:29:21;;;;;;;;;;;-0.80;97.30;;;;;;4917409;29;20193;-84
2023/12/01 16:31:47;;;;;;;;;;;-0.80;97.30;;;;;;4929588;28;19918;-84
2023/12/01 16:34:12;;;;;;;;;;;-0.80;97.30;;;;;;4916569;29;19926;-85
2023/12/01 16:36:38;;;;;;;;;;;-0.80;97.30;;;;;;4918196;29;20514;-84
2023/12/01 16:39:04;;;;;;;;;;;-0.70;97.30;;;;;;4917208;29;19925;-84
2023/12/01 16:41:30;;;;;;;;;;;-0.70;97.30;;;;;;4933585;28;19923;-85
2023/12/01 16:43:56;;;;;;;;;;;-0.60;97.30;;;;;;4930572;29;19969;-85
2023/12/01 16:46:21;;;;;;;;;;;-0.60;97.30;;;;;;4917916;29;19918;-83
2023/12/01 16:48:47;;;;;;;;;;;-0.60;97.30;;;;;;4918661;29;20363;-83
2023/12/01 16:51:12;;;;;;;;;;;-0.70;97.30;;;;;;4917970;29;19915;-80
2023/12/01 16:53:38;;;;;;;;;;;-0.70;97.30;;;;;;4932717;29;20519;-85
2023/12/01 16:56:05;;;;;;;;;;;-0.70;97.30;;;;;;4916272;29;19907;-86
2023/12/01 16:58:30;;;;;;;;;;;-0.70;97.30;;;;;;4922454;29;19911;-87
2023/12/01 17:00:55;;;;;;;;;;;-0.70;97.30;;;;;;4929457;29;20288;-87
2023/12/01 17:03:22;;;;;;;;;;;-0.70;97.30;;;;;;4917159;29;19973;-87
2023/12/01 17:05:47;;;;;;;;;;;-0.60;97.30;;;;;;4915430;29;19919;-87
2023/12/01 17:08:13;;;;;;;;;;;-0.70;97.30;;;;;;4934011;29;19907;-87
2023/12/01 17:10:38;;;;;;;;;;;-0.70;97.30;;;;;;4930039;29;19971;-88
2023/12/01 17:13:04;;;;;;;;;;;-0.70;97.30;;;;;;4919008;29;19918;-87
2023/12/01 17:15:30;;;;;;;;;;;-0.70;97.30;;;;;;4933881;29;19911;-88
2023/12/01 17:17:55;;;;;;;;;;;-0.60;97.30;;;;;;4934033;29;19926;-88
2023/12/01 17:20:20;;;;;;;;;;;-0.60;97.30;;;;;;4933768;29;20363;-88
2023/12/01 17:22:46;;;;;;;;;;;-0.60;97.30;;;;;;4917369;29;21203;-89
2023/12/01 17:25:11;;;;;;;;;;;-0.60;97.30;;;;;;4906319;29;20412;-88
2023/12/01 17:27:40;;;;;;;;;;;-0.60;97.30;;;;;;4922579;29;19926;-89
2023/12/01 17:30:06;;;;;;;;;;;-0.70;97.30;;;;;;4913364;29;19975;-89
2023/12/01 17:32:31;;;;;;;;;;;-0.70;97.30;;;;;;4914343;29;19915;-88
2023/12/01 17:34:57;;;;;;;;;;;-0.60;97.30;;;;;;4913283;29;19908;-88
2023/12/01 17:37:22;;;;;;;;;;;-0.60;97.30;;;;;;4922206;29;20009;-88
2023/12/01 17:39:48;;;;;;;;;;;-0.60;97.30;;;;;;4912351;29;20498;-89
2023/12/01 17:42:13;;;;;;;;;;;-0.60;97.30;;;;;;4907288;29;19911;-88
2023/12/01 17:44:39;;;;;;;;;;;-0.60;97.30;;;;;;4916513;29;20157;-87
2023/12/01 17:47:04;;;;;;;;;;;-0.50;97.30;;;;;;4916307;29;20300;-87
2023/12/01 17:49:29;;;;;;;;;;;-0.50;97.30;;;;;;4915911;29;19941;-88
2023/12/01 17:51:55;;;;;;;;;;;-0.50;97.30;;;;;;4910482;29;19966;-87
2023/12/01 17:54:20;;;;;;;;;;;-0.60;97.30;;;;;;4926588;29;19919;-88
2023/12/01 17:56:46;;;;;;;;;;;-0.50;97.30;;;;;;4917343;29;19942;-86
2023/12/01 17:59:11;;;;;;;;;;;-0.50;97.30;;;;;;4925418;29;20355;-87
2023/12/01 18:01:37;;;;;;;;;;;-0.60;97.30;;;;;;4925777;29;19927;-88
2023/12/01 18:04:03;;;;;;;;;;;-0.60;97.30;;;;;;4916670;29;20344;-86
2023/12/01 18:06:29;;;;;;;;;;;-0.60;97.30;;;;;;4926184;29;19915;-87
2023/12/01 18:08:54;;;;;;;;;;;-0.60;97.30;;;;;;4911200;29;19907;-87
2023/12/01 18:11:21;;;;;;;;;;;-0.60;97.30;;;;;;4914686;29;19915;-87
2023/12/01 18:13:47;;;;;;;;;;;-0.60;97.30;;;;;;4918063;29;19911;-86
2023/12/01 18:16:12;;;;;;;;;;;-0.60;97.30;;;;;;4933966;29;19907;-87
2023/12/01 18:18:38;;;;;;;;;;;-0.50;97.30;;;;;;4924410;29;19919;-86
2023/12/01 18:21:03;;;;;;;;;;;-0.40;97.30;;;;;;4923356;29;19926;-88
2023/12/01 18:23:29;;;;;;;;;;;-0.40;97.30;;;;;;4924729;29;19915;-87
2023/12/01 18:25:55;;;;;;;;;;;-0.30;97.30;;;;;;4916261;29;20023;-89
2023/12/01 18:28:20;;;;;;;;;;;-0.30;97.30;;;;;;4915704;29;19944;-86
2023/12/01 18:30:46;;;;;;;;;;;-0.30;97.30;;;;;;4914774;29;19911;-88
2023/12/01 18:33:11;;;;;;;;;;;-0.40;97.30;;;;;;4917846;29;20209;-89
2023/12/01 18:35:37;;;;;;;;;;;-0.40;97.30;;;;;;4939555;29;19907;-88
2023/12/01 18:38:03;;;;;;;;;;;-0.50;97.30;;;;;;4930800;29;19907;-87
2023/12/01 18:40:28;;;;;;;;;;;-0.40;97.30;;;;;;4916510;29;19914;-88
2023/12/01 18:42:53;;;;;;;;;;;-0.30;97.30;;;;;;4936916;29;19907;-88
2023/12/01 18:45:19;;;;;;;;;;;-0.40;97.30;;;;;;4931703;29;20406;-88
2023/12/01 18:47:45;;;;;;;;;;;-0.50;97.30;;;;;;4924006;29;19911;-88
2023/12/01 18:50:11;;;;;;;;;;;-0.60;97.30;;;;;;4917100;29;19918;-87
2023/12/01 18:52:37;;;;;;;;;;;-0.60;97.30;;;;;;4934291;29;20331;-86
2023/12/01 18:55:03;;;;;;;;;;;-0.60;97.30;;;;;;4937775;29;19907;-88
2023/12/01 18:57:28;;;;;;;;;;;-0.60;97.30;;;;;;4933847;29;19914;-88
2023/12/01 18:59:53;;;;;;;;;;;-0.70;97.30;;;;;;4929152;29;20307;-88
2023/12/01 19:02:19;;;;;;;;;;;-0.60;97.30;;;;;;4924457;29;20399;-86
2023/12/01 19:04:44;;;;;;;;;;;-0.60;97.30;;;;;;4925118;29;20360;-88
2023/12/01 19:07:10;;;;;;;;;;;-0.60;97.30;;;;;;4941132;29;19911;-88
2023/12/01 19:09:35;;;;;;;;;;;-0.70;97.30;;;;;;4950592;29;19942;-89
2023/12/01 19:12:01;;;;;;;;;;;-0.70;97.30;;;;;;4932832;29;20287;-86
2023/12/01 19:14:26;;;;;;;;;;;-0.60;97.30;;;;;;4937758;29;19907;-88
2023/12/01 19:16:51;;;;;;;;;;;-0.60;97.30;;;;;;4949379;23;19934;-86